Time;durP1;ratioP1;P1;durP2;ratioP2;P2;SDS_P1;SDS_P2;PMS_P1;PMS_P2;Temp;Humidity;BMP_temperature;BMP_pressure;BME280_temperature;BME280_humidity;BME280_pressure;Samples;Min_cycle;Max_cycle;Signal;HPM_P1;HPM_P2
2023/05/04 00:02:21;;;;;;;9.65;4.93;;;8.60;99.90;;;;;;5175038;27;20037;-57
2023/05/04 00:04:50;;;;;;;9.05;4.60;;;8.60;99.90;;;;;;5175213;27;20039;-58
2023/05/04 00:07:16;;;;;;;10.30;4.40;;;8.50;99.90;;;;;;5175105;27;20163;-58
2023/05/04 00:09:41;;;;;;;8.70;4.18;;;8.40;99.90;;;;;;5176469;27;20146;-56
2023/05/04 00:12:07;;;;;;;8.13;4.25;;;8.40;99.90;;;;;;5176317;27;20027;-58
2023/05/04 00:14:33;;;;;;;10.00;4.50;;;8.30;99.90;;;;;;5173699;27;20117;-53
2023/05/04 00:16:58;;;;;;;12.25;4.30;;;8.30;99.90;;;;;;5171481;27;20453;-57
2023/05/04 00:19:24;;;;;;;10.73;4.43;;;8.30;99.90;;;;;;5174416;27;20105;-56
2023/05/04 00:21:50;;;;;;;11.07;4.20;;;8.30;99.90;;;;;;5175170;27;20038;-60
2023/05/04 00:24:15;;;;;;;9.73;4.47;;;8.20;99.90;;;;;;5176371;27;20026;-54
2023/05/04 00:26:41;;;;;;;11.68;4.80;;;8.30;99.90;;;;;;5175774;27;20433;-56
2023/05/04 00:29:07;;;;;;;9.82;4.75;;;8.30;99.90;;;;;;5173795;27;20062;-57
2023/05/04 00:31:32;;;;;;;9.75;4.45;;;8.20;99.90;;;;;;5142470;27;20103;-57
2023/05/04 00:33:58;;;;;;;10.98;5.07;;;8.20;99.90;;;;;;5167458;27;20038;-57
2023/05/04 00:36:23;;;;;;;8.00;4.57;;;8.10;99.90;;;;;;5174920;27;20397;-57
2023/05/04 00:38:51;;;;;;;13.23;4.75;;;8.00;99.90;;;;;;5142574;27;20038;-57
2023/05/04 00:41:17;;;;;;;8.07;4.50;;;8.00;99.90;;;;;;5174563;27;20163;-57
2023/05/04 00:43:44;;;;;;;8.27;4.45;;;8.00;99.90;;;;;;5173974;27;20524;-59
2023/05/04 00:46:10;;;;;;;13.43;5.00;;;8.00;99.90;;;;;;5173742;27;20048;-59
2023/05/04 00:48:40;;;;;;;13.85;5.63;;;8.00;99.90;;;;;;5140650;27;20043;-59
2023/05/04 00:51:06;;;;;;;10.98;5.05;;;7.90;99.90;;;;;;5174489;27;20525;-58
2023/05/04 00:53:33;;;;;;;11.65;5.57;;;7.90;99.90;;;;;;5173238;27;20034;-59
2023/05/04 00:56:00;;;;;;;7.22;4.43;;;7.90;99.90;;;;;;5172771;27;20034;-59
2023/05/04 00:58:26;;;;;;;8.95;4.90;;;7.90;99.90;;;;;;5175208;27;20036;-57
2023/05/04 01:00:52;;;;;;;12.18;4.68;;;7.90;99.90;;;;;;5174011;27;20045;-57
2023/05/04 01:03:18;;;;;;;7.65;4.90;;;7.80;99.90;;;;;;5174185;27;20389;-60
2023/05/04 01:06:12;;;;;;;8.55;5.05;;;7.80;99.90;;;;;;5172288;27;20121;-57
2023/05/04 01:08:44;;;;;;;9.30;4.90;;;7.80;99.90;;;;;;5171355;27;20408;-57
2023/05/04 01:11:14;;;;;;;11.40;5.38;;;7.80;99.90;;;;;;5173695;27;20065;-58
2023/05/04 01:13:41;;;;;;;8.75;4.60;;;7.70;99.90;;;;;;5175307;27;20102;-55
2023/05/04 01:16:07;;;;;;;8.77;5.03;;;7.70;99.90;;;;;;5175045;27;20034;-52
2023/05/04 01:18:33;;;;;;;14.55;5.63;;;7.70;99.90;;;;;;5140016;27;20385;-58
2023/05/04 01:20:59;;;;;;;10.95;4.90;;;7.60;99.90;;;;;;5173712;27;20131;-60
2023/05/04 01:23:25;;;;;;;9.60;4.70;;;7.60;99.90;;;;;;5172731;27;20034;-57
2023/05/04 01:26:11;;;;;;;11.80;5.05;;;7.60;99.90;;;;;;5172630;27;20472;-58
2023/05/04 01:28:40;;;;;;;12.95;5.55;;;7.60;99.90;;;;;;5172312;27;20422;-60
2023/05/04 01:31:08;;;;;;;13.02;6.13;;;7.60;99.90;;;;;;5172793;27;20042;-54
2023/05/04 01:33:36;;;;;;;11.15;5.05;;;7.50;99.90;;;;;;5173703;27;20477;-60
2023/05/04 01:36:02;;;;;;;10.48;5.22;;;7.50;99.90;;;;;;5173455;27;20031;-56
2023/05/04 01:38:27;;;;;;;10.70;5.45;;;7.50;99.90;;;;;;5172762;27;20097;-60
2023/05/04 01:40:53;;;;;;;11.38;5.32;;;7.50;99.90;;;;;;5172455;27;20120;-57
2023/05/04 01:43:19;;;;;;;10.00;4.97;;;7.50;99.90;;;;;;5172441;27;20031;-58
2023/05/04 01:45:44;;;;;;;12.68;5.38;;;7.50;99.90;;;;;;5159639;27;20052;-59
2023/05/04 01:48:10;;;;;;;10.18;5.13;;;7.50;99.90;;;;;;5174143;27;20034;-56
2023/05/04 01:50:36;;;;;;;10.00;5.70;;;7.50;99.90;;;;;;5174682;27;20034;-56
2023/05/04 01:53:01;;;;;;;12.82;5.88;;;7.40;99.90;;;;;;5173450;27;20042;-59
2023/05/04 01:55:27;;;;;;;11.27;5.57;;;7.40;99.90;;;;;;5172382;27;20034;-56
2023/05/04 01:57:53;;;;;;;13.13;5.32;;;7.40;99.90;;;;;;5171383;27;20129;-57
2023/05/04 02:00:19;;;;;;;12.65;5.57;;;7.40;99.90;;;;;;5173038;27;20046;-60
2023/05/04 02:02:44;;;;;;;10.70;5.55;;;7.40;99.90;;;;;;5172869;27;20064;-56
2023/05/04 02:05:10;;;;;;;10.32;5.22;;;7.40;99.90;;;;;;5155322;27;20081;-58
2023/05/04 02:07:36;;;;;;;12.23;5.55;;;7.40;99.90;;;;;;5146958;27;20043;-56
2023/05/04 02:10:02;;;;;;;11.13;5.20;;;7.30;99.90;;;;;;5169615;27;20041;-59
2023/05/04 02:12:28;;;;;;;10.77;5.65;;;7.30;99.90;;;;;;5171466;27;20414;-54
2023/05/04 02:14:53;;;;;;;11.60;5.60;;;7.30;99.90;;;;;;5163633;27;20027;-59
2023/05/04 02:17:19;;;;;;;9.90;5.60;;;7.30;99.90;;;;;;5171177;27;20122;-56
2023/05/04 02:19:45;;;;;;;12.48;5.25;;;7.30;99.90;;;;;;5173107;27;20124;-60
2023/05/04 02:22:10;;;;;;;9.93;5.88;;;7.30;99.90;;;;;;5173914;27;20069;-58
2023/05/04 02:24:36;;;;;;;12.63;6.15;;;7.30;99.90;;;;;;5172828;27;20408;-58
2023/05/04 02:27:02;;;;;;;15.07;6.05;;;7.30;99.90;;;;;;5171269;27;20397;-58
2023/05/04 02:29:27;;;;;;;10.75;6.18;;;7.30;99.90;;;;;;5172000;27;20027;-57
2023/05/04 02:31:53;;;;;;;10.25;5.95;;;7.30;99.90;;;;;;5171589;27;20034;-58
2023/05/04 02:34:19;;;;;;;13.57;5.55;;;7.20;99.90;;;;;;5173790;27;20030;-55
2023/05/04 02:36:45;;;;;;;12.95;6.03;;;7.20;99.90;;;;;;5173534;27;20038;-59
2023/05/04 02:39:11;;;;;;;12.80;6.18;;;7.20;99.90;;;;;;5172007;27;20038;-59
2023/05/04 02:41:37;;;;;;;13.55;6.30;;;7.20;99.90;;;;;;5169582;27;20500;-56
2023/05/04 02:44:03;;;;;;;11.57;6.07;;;7.20;99.90;;;;;;5141299;27;20034;-59
2023/05/04 02:46:29;;;;;;;12.13;6.07;;;7.20;99.90;;;;;;5164248;27;20034;-59
2023/05/04 02:48:55;;;;;;;13.73;6.97;;;7.10;99.90;;;;;;5170543;27;20129;-54
2023/05/04 02:51:21;;;;;;;13.45;6.20;;;7.10;99.90;;;;;;5173288;27;20121;-58
2023/05/04 02:53:46;;;;;;;11.60;6.18;;;7.10;99.90;;;;;;5172454;27;20092;-59
2023/05/04 02:56:12;;;;;;;13.65;5.57;;;7.10;99.90;;;;;;5131898;27;20031;-58
2023/05/04 02:58:38;;;;;;;14.02;6.25;;;7.30;99.90;;;;;;5171885;27;20065;-58
2023/05/04 03:01:03;;;;;;;15.93;6.00;;;7.10;99.90;;;;;;5171794;27;20086;-57
2023/05/04 03:03:29;;;;;;;12.77;7.25;;;7.00;99.90;;;;;;5172671;27;20039;-61
2023/05/04 03:05:55;;;;;;;12.63;6.15;;;7.00;99.90;;;;;;5170076;27;20492;-60
2023/05/04 03:08:20;;;;;;;11.75;7.57;;;7.00;99.90;;;;;;5170872;27;20053;-57
2023/05/04 03:10:46;;;;;;;12.40;5.80;;;7.00;99.90;;;;;;5170639;27;20049;-56
2023/05/04 03:13:11;;;;;;;12.05;6.63;;;7.00;99.90;;;;;;5172356;27;20049;-57
2023/05/04 03:15:37;;;;;;;12.18;6.07;;;7.10;99.90;;;;;;5137076;27;20034;-57
2023/05/04 03:18:03;;;;;;;13.57;8.57;;;6.90;99.90;;;;;;5170296;27;20045;-60
2023/05/04 03:20:29;;;;;;;16.95;6.90;;;7.00;99.90;;;;;;5171864;27;20137;-55
2023/05/04 03:22:54;;;;;;;15.90;6.65;;;6.90;99.90;;;;;;5175765;27;20489;-57
2023/05/04 03:25:20;;;;;;;12.02;6.18;;;6.90;99.90;;;;;;5174712;27;20086;-57
2023/05/04 03:27:46;;;;;;;12.23;6.25;;;6.90;99.90;;;;;;5133000;27;20075;-58
2023/05/04 03:30:12;;;;;;;15.55;6.50;;;6.90;99.90;;;;;;5162742;27;20456;-57
2023/05/04 03:32:38;;;;;;;16.05;6.88;;;6.80;99.90;;;;;;5175635;27;20037;-57
2023/05/04 03:35:04;;;;;;;13.27;7.13;;;6.90;99.90;;;;;;5177106;27;20030;-57
2023/05/04 03:37:30;;;;;;;12.25;6.65;;;6.90;99.90;;;;;;5174039;27;20037;-58
2023/05/04 03:39:55;;;;;;;12.43;5.97;;;6.80;99.90;;;;;;5175096;27;20408;-58
2023/05/04 03:42:21;;;;;;;14.00;6.90;;;6.80;99.90;;;;;;5140127;27;20052;-58
2023/05/04 03:44:47;;;;;;;14.77;6.32;;;6.80;99.90;;;;;;5175177;27;20034;-60
2023/05/04 03:47:12;;;;;;;14.82;7.45;;;6.80;99.90;;;;;;5175470;27;20042;-58
2023/05/04 03:49:38;;;;;;;21.50;7.43;;;6.70;99.90;;;;;;5173889;27;20046;-59
2023/05/04 03:52:04;;;;;;;13.02;6.40;;;6.70;99.90;;;;;;5158187;27;20030;-58
2023/05/04 03:54:30;;;;;;;14.13;6.45;;;6.70;99.90;;;;;;5157933;27;20034;-60
2023/05/04 03:56:55;;;;;;;11.43;6.35;;;6.70;99.90;;;;;;5173303;27;20034;-57
2023/05/04 03:59:21;;;;;;;13.48;5.97;;;6.70;99.90;;;;;;5174986;27;20100;-57
2023/05/04 04:01:47;;;;;;;11.70;6.30;;;6.60;99.90;;;;;;5174643;27;20038;-55
2023/05/04 04:04:12;;;;;;;15.57;7.18;;;6.80;99.90;;;;;;5175493;27;20380;-57
2023/05/04 04:06:38;;;;;;;13.15;6.78;;;6.70;99.90;;;;;;5160046;27;20047;-60
2023/05/04 04:09:04;;;;;;;17.40;7.35;;;6.60;99.90;;;;;;5140422;27;20042;-60
2023/05/04 04:11:29;;;;;;;14.15;6.90;;;6.60;99.90;;;;;;5133533;27;20051;-60
2023/05/04 04:13:55;;;;;;;12.75;6.43;;;6.60;99.90;;;;;;5160250;27;20053;-58
2023/05/04 04:16:21;;;;;;;17.00;6.80;;;6.60;99.90;;;;;;5174108;27;20030;-56
2023/05/04 04:18:47;;;;;;;14.30;6.82;;;6.60;99.90;;;;;;5174097;27;20038;-57
2023/05/04 04:21:13;;;;;;;13.07;7.05;;;6.60;99.90;;;;;;5173459;27;20113;-57
2023/05/04 04:23:39;;;;;;;14.55;7.18;;;6.60;99.90;;;;;;5174855;27;20117;-59
2023/05/04 04:26:07;;;;;;;16.10;6.35;;;6.50;99.90;;;;;;5173895;27;20034;-56
2023/05/04 04:28:33;;;;;;;14.25;6.72;;;6.60;99.90;;;;;;5174455;27;20473;-58
2023/05/04 04:30:59;;;;;;;18.17;7.00;;;6.60;99.90;;;;;;5174325;27;20041;-59
2023/05/04 04:33:25;;;;;;;15.88;7.18;;;6.60;99.90;;;;;;5173865;27;20062;-55
2023/05/04 04:35:52;;;;;;;11.98;6.25;;;6.50;99.90;;;;;;5176240;27;20072;-57
2023/05/04 04:38:18;;;;;;;15.45;6.93;;;6.50;99.90;;;;;;5174728;27;20034;-58
2023/05/04 04:40:43;;;;;;;16.67;7.07;;;6.50;99.90;;;;;;5172302;27;20065;-57
2023/05/04 04:43:10;;;;;;;15.32;6.95;;;6.50;99.90;;;;;;5123088;27;20114;-60
2023/05/04 04:45:36;;;;;;;13.95;7.10;;;6.50;99.90;;;;;;5173023;27;20083;-58
2023/05/04 04:48:02;;;;;;;15.43;7.55;;;6.50;99.90;;;;;;5138589;27;20034;-57
2023/05/04 04:50:28;;;;;;;14.35;6.43;;;6.60;99.90;;;;;;5174193;27;20033;-58
2023/05/04 04:52:54;;;;;;;14.77;6.80;;;6.60;99.90;;;;;;5173925;27;20037;-59
2023/05/04 04:55:20;;;;;;;15.50;6.70;;;6.60;99.90;;;;;;5174297;27;20034;-59
2023/05/04 04:57:46;;;;;;;17.02;7.15;;;6.60;99.90;;;;;;5174938;27;20037;-56
2023/05/04 05:00:13;;;;;;;16.42;7.35;;;6.60;99.90;;;;;;5175169;27;20066;-56
2023/05/04 05:02:39;;;;;;;13.02;6.47;;;6.60;99.90;;;;;;5173985;27;20042;-60
2023/05/04 05:05:05;;;;;;;16.70;7.30;;;6.60;99.90;;;;;;5172856;27;20054;-54
2023/05/04 05:07:31;;;;;;;16.77;7.78;;;6.70;99.90;;;;;;5173966;27;20030;-59
2023/05/04 05:09:57;;;;;;;14.98;7.10;;;6.60;99.90;;;;;;5173226;27;20030;-55
2023/05/04 05:12:23;;;;;;;17.65;7.57;;;6.70;99.90;;;;;;5174410;27;20030;-60
2023/05/04 05:14:49;;;;;;;13.43;7.20;;;6.70;99.90;;;;;;5172411;27;20422;-60
2023/05/04 05:17:15;;;;;;;13.43;7.15;;;6.70;99.90;;;;;;5173515;27;20087;-61
2023/05/04 05:19:42;;;;;;;14.82;8.15;;;6.70;99.90;;;;;;5131921;27;20386;-60
2023/05/04 05:22:08;;;;;;;15.43;7.50;;;6.80;99.90;;;;;;5140758;27;20083;-60
2023/05/04 05:24:33;;;;;;;16.02;8.13;;;6.80;99.90;;;;;;5172071;27;20536;-58
2023/05/04 05:26:59;;;;;;;12.90;7.07;;;6.90;99.90;;;;;;5172179;27;20034;-59
2023/05/04 05:29:25;;;;;;;16.88;7.68;;;6.90;99.90;;;;;;5172211;27;20086;-58
2023/05/04 05:31:51;;;;;;;17.02;7.38;;;6.90;99.90;;;;;;5175304;27;20030;-58
2023/05/04 05:34:16;;;;;;;17.77;7.30;;;7.00;99.90;;;;;;5174009;27;20121;-56
2023/05/04 05:36:43;;;;;;;14.18;6.70;;;7.10;99.90;;;;;;5172914;27;20042;-58
2023/05/04 05:39:10;;;;;;;16.17;7.97;;;7.20;99.90;;;;;;5173030;27;20045;-57
2023/05/04 05:41:36;;;;;;;17.48;7.30;;;7.20;99.90;;;;;;5172654;27;20034;-60
2023/05/04 05:44:01;;;;;;;18.90;7.80;;;7.30;99.90;;;;;;5149117;27;20505;-60
2023/05/04 05:46:27;;;;;;;16.55;8.05;;;7.40;99.90;;;;;;5132917;27;20300;-60
2023/05/04 05:48:53;;;;;;;15.10;7.10;;;7.40;99.90;;;;;;5132567;27;20031;-61
2023/05/04 05:51:19;;;;;;;14.60;7.88;;;7.40;99.90;;;;;;5168551;27;20023;-57
2023/05/04 05:53:45;;;;;;;16.23;7.35;;;7.40;99.90;;;;;;5173806;27;20037;-60
2023/05/04 05:56:11;;;;;;;14.95;7.85;;;7.50;99.90;;;;;;5172026;27;20055;-56
2023/05/04 05:58:38;;;;;;;15.52;7.50;;;7.60;99.90;;;;;;5173027;27;20057;-60
2023/05/04 06:01:03;;;;;;;14.98;7.28;;;7.60;99.90;;;;;;5172087;27;20083;-58
2023/05/04 06:03:29;;;;;;;13.95;7.47;;;7.70;99.90;;;;;;5173506;27;20038;-58
2023/05/04 06:05:55;;;;;;;17.20;7.78;;;7.70;99.90;;;;;;5171663;27;20060;-59
2023/05/04 06:08:20;;;;;;;16.27;7.55;;;7.90;99.90;;;;;;5172542;27;20849;-58
2023/05/04 06:10:47;;;;;;;15.88;8.40;;;7.90;99.90;;;;;;5174326;27;20030;-58
2023/05/04 06:13:13;;;;;;;18.58;8.73;;;8.00;99.90;;;;;;5173627;27;20041;-59
2023/05/04 06:15:38;;;;;;;19.95;8.80;;;8.00;99.90;;;;;;5171435;27;21270;-61
2023/05/04 06:18:04;;;;;;;17.77;8.23;;;8.10;99.90;;;;;;5172448;27;20133;-57
2023/05/04 06:20:30;;;;;;;13.07;9.50;;;8.20;99.90;;;;;;5171314;27;20030;-61
2023/05/04 06:22:56;;;;;;;13.85;7.43;;;8.30;99.90;;;;;;5174065;27;20064;-57
2023/05/04 06:25:21;;;;;;;16.40;7.82;;;8.40;99.90;;;;;;5173936;27;20038;-58
2023/05/04 06:27:47;;;;;;;14.52;7.53;;;8.50;99.90;;;;;;5162829;27;20088;-60
2023/05/04 06:30:14;;;;;;;14.10;8.30;;;8.60;99.90;;;;;;5163126;27;20115;-59
2023/05/04 06:32:40;;;;;;;16.08;8.13;;;8.60;99.90;;;;;;5170522;27;20477;-59
2023/05/04 06:35:07;;;;;;;17.05;8.15;;;8.70;99.90;;;;;;5164092;27;20035;-59
2023/05/04 06:37:33;;;;;;;14.80;7.72;;;8.70;99.90;;;;;;5151332;27;20053;-56
2023/05/04 06:39:59;;;;;;;12.90;8.05;;;8.80;99.90;;;;;;5157354;27;20047;-58
2023/05/04 06:42:30;;;;;;;13.55;7.70;;;8.90;99.90;;;;;;5153434;27;20460;-56
2023/05/04 06:44:56;;;;;;;17.25;8.75;;;8.90;99.90;;;;;;5154835;27;20696;-58
2023/05/04 06:47:22;;;;;;;16.05;7.40;;;9.00;99.90;;;;;;5152355;27;20039;-54
2023/05/04 06:49:48;;;;;;;15.85;8.05;;;9.10;99.90;;;;;;5153122;27;20493;-60
2023/05/04 06:52:14;;;;;;;12.23;7.75;;;9.20;99.90;;;;;;5151608;27;20498;-56
2023/05/04 06:54:39;;;;;;;15.30;7.55;;;9.30;99.90;;;;;;5144167;27;20034;-57
2023/05/04 06:57:05;;;;;;;17.63;8.23;;;9.30;99.90;;;;;;5123750;27;20039;-59
2023/05/04 06:59:31;;;;;;;13.15;7.90;;;9.40;99.90;;;;;;5115241;27;20035;-58
2023/05/04 07:01:57;;;;;;;15.65;7.88;;;9.50;99.90;;;;;;5138297;27;20053;-59
2023/05/04 07:04:23;;;;;;;14.50;8.40;;;9.50;99.90;;;;;;5147574;27;20034;-59
2023/05/04 07:06:49;;;;;;;13.32;7.63;;;9.60;99.90;;;;;;5144799;27;20107;-59
2023/05/04 07:09:16;;;;;;;15.15;8.10;;;9.70;99.90;;;;;;5145291;27;20030;-59
2023/05/04 07:11:42;;;;;;;13.07;8.00;;;9.70;99.90;;;;;;5147713;27;20049;-59
2023/05/04 07:14:08;;;;;;;15.55;8.13;;;9.80;99.90;;;;;;5169314;27;20034;-60
2023/05/04 07:16:35;;;;;;;15.15;7.97;;;9.80;99.90;;;;;;5165347;27;20425;-58
2023/05/04 07:19:00;;;;;;;13.52;8.80;;;9.80;99.90;;;;;;5161668;27;20046;-54
2023/05/04 07:21:27;;;;;;;13.18;8.27;;;9.90;99.90;;;;;;5135433;27;20038;-58
2023/05/04 07:23:53;;;;;;;13.68;7.97;;;9.90;99.90;;;;;;5167953;27;20462;-59
2023/05/04 07:26:21;;;;;;;18.42;8.75;;;10.00;99.90;;;;;;5170304;27;20069;-56
2023/05/04 07:28:46;;;;;;;12.45;7.95;;;10.10;99.90;;;;;;5171142;27;20060;-59
2023/05/04 07:31:13;;;;;;;15.02;7.97;;;10.20;99.90;;;;;;5169043;27;20114;-58
2023/05/04 07:33:39;;;;;;;13.25;7.85;;;10.20;99.90;;;;;;5168752;27;20447;-57
2023/05/04 07:36:05;;;;;;;16.95;8.95;;;10.30;99.90;;;;;;5168487;27;20446;-58
2023/05/04 07:38:31;;;;;;;14.35;8.18;;;10.40;99.90;;;;;;5170021;27;20121;-55
2023/05/04 07:40:57;;;;;;;17.13;7.85;;;10.50;99.90;;;;;;5170442;27;20114;-55
2023/05/04 07:43:22;;;;;;;12.75;7.75;;;10.60;99.90;;;;;;5172181;27;20062;-56
2023/05/04 07:45:49;;;;;;;13.48;8.13;;;10.70;99.90;;;;;;5145166;27;20042;-56
2023/05/04 07:48:15;;;;;;;12.85;7.65;;;10.80;99.90;;;;;;5119981;27;20047;-56
2023/05/04 07:50:41;;;;;;;14.63;7.53;;;10.80;99.90;;;;;;5168619;27;20046;-60
2023/05/04 07:53:07;;;;;;;12.48;7.20;;;10.90;99.90;;;;;;5168577;27;20083;-52
2023/05/04 07:55:32;;;;;;;13.50;7.60;;;11.00;99.90;;;;;;5140855;27;20100;-55
2023/05/04 07:57:58;;;;;;;14.27;7.38;;;11.10;99.90;;;;;;5161366;27;20042;-57
2023/05/04 08:00:25;;;;;;;14.75;8.18;;;11.20;99.90;;;;;;5170329;27;20035;-56
2023/05/04 08:02:50;;;;;;;17.50;8.32;;;11.30;99.90;;;;;;5169539;27;20066;-56
2023/05/04 08:05:16;;;;;;;12.23;7.40;;;11.40;99.90;;;;;;5171333;27;20078;-56
2023/05/04 08:07:42;;;;;;;13.35;7.68;;;11.40;99.90;;;;;;5162795;27;20035;-54
2023/05/04 08:10:08;;;;;;;13.48;7.57;;;11.50;99.90;;;;;;5173543;27;20038;-55
2023/05/04 08:12:34;;;;;;;11.25;7.50;;;11.60;99.90;;;;;;5173043;27;20046;-54
2023/05/04 08:15:00;;;;;;;15.52;7.45;;;11.70;99.90;;;;;;5175654;27;20037;-57
2023/05/04 08:17:26;;;;;;;16.70;7.30;;;11.80;99.90;;;;;;5137029;27;20039;-57
2023/05/04 08:19:52;;;;;;;15.68;8.35;;;11.90;99.90;;;;;;5174088;27;20473;-57
2023/05/04 08:22:18;;;;;;;16.15;8.68;;;11.90;99.90;;;;;;5173751;27;20474;-59
2023/05/04 08:24:46;;;;;;;13.68;7.97;;;11.90;99.90;;;;;;5174420;27;20042;-59
2023/05/04 08:27:13;;;;;;;11.60;7.22;;;12.00;99.90;;;;;;5173630;27;20497;-59
2023/05/04 08:29:40;;;;;;;12.77;6.90;;;12.00;99.90;;;;;;5175374;27;20038;-58
2023/05/04 08:32:06;;;;;;;14.00;7.40;;;12.10;99.90;;;;;;5157086;27;20049;-58
2023/05/04 08:34:32;;;;;;;12.18;7.43;;;12.10;99.90;;;;;;5161355;27;20471;-57
2023/05/04 08:36:58;;;;;;;15.23;7.35;;;12.20;99.90;;;;;;5142126;27;20047;-57
2023/05/04 08:39:24;;;;;;;13.95;7.25;;;12.30;99.90;;;;;;5141737;27;20035;-57
2023/05/04 08:41:49;;;;;;;11.68;7.38;;;12.40;99.90;;;;;;5145725;27;20058;-57
2023/05/04 08:44:17;;;;;;;14.18;7.88;;;12.50;99.90;;;;;;5140519;27;20049;-56
2023/05/04 08:46:51;;;;;;;13.00;7.32;;;12.60;99.90;;;;;;5147990;27;20023;-58
2023/05/04 08:49:18;;;;;;;14.02;7.40;;;12.70;99.90;;;;;;5146717;27;20871;-55
2023/05/04 08:51:46;;;;;;;12.95;7.43;;;12.80;99.90;;;;;;5145390;27;20030;-58
2023/05/04 08:54:12;;;;;;;12.48;7.78;;;12.90;99.90;;;;;;5144917;27;20125;-59
2023/05/04 08:56:39;;;;;;;14.55;7.22;;;13.00;99.90;;;;;;5149930;27;20821;-59
2023/05/04 08:59:07;;;;;;;11.15;7.40;;;13.10;99.90;;;;;;5148930;27;20034;-58
2023/05/04 09:01:35;;;;;;;12.52;7.10;;;13.20;99.90;;;;;;5147454;27;21260;-58
2023/05/04 09:04:02;;;;;;;10.27;6.85;;;13.40;99.90;;;;;;5144781;27;20035;-58
2023/05/04 09:06:28;;;;;;;12.30;7.43;;;13.50;99.90;;;;;;5151070;27;20046;-59
2023/05/04 09:08:53;;;;;;;11.90;7.10;;;13.70;99.90;;;;;;5161057;27;20034;-59
2023/05/04 09:11:20;;;;;;;10.35;7.07;;;13.80;99.90;;;;;;5169989;27;20042;-60
2023/05/04 09:13:46;;;;;;;11.63;6.72;;;14.00;99.90;;;;;;5171226;27;20044;-58
2023/05/04 09:16:13;;;;;;;10.50;6.82;;;14.20;99.90;;;;;;5174208;27;20041;-58
2023/05/04 09:18:41;;;;;;;12.07;6.55;;;14.50;99.90;;;;;;5174385;27;20044;-57
2023/05/04 09:21:07;;;;;;;10.48;7.45;;;14.70;99.90;;;;;;5169833;27;20038;-56
2023/05/04 09:23:47;;;;;;;9.27;6.30;;;14.90;99.90;;;;;;5173402;27;20593;-58
2023/05/04 09:26:13;;;;;;;11.60;6.93;;;15.10;99.90;;;;;;5171009;27;20397;-57
2023/05/04 09:28:39;;;;;;;12.70;7.22;;;15.30;99.90;;;;;;5174024;27;20031;-58
2023/05/04 09:31:06;;;;;;;11.98;6.10;;;15.40;99.90;;;;;;5173644;27;20026;-56
2023/05/04 09:33:32;;;;;;;10.25;6.13;;;15.60;99.90;;;;;;5132576;27;20057;-57
2023/05/04 09:36:19;;;;;;;11.43;7.00;;;15.70;99.90;;;;;;5139947;27;20066;-57
2023/05/04 09:38:45;;;;;;;11.77;7.07;;;15.80;99.90;;;;;;5171806;27;20501;-59
2023/05/04 09:41:11;;;;;;;11.20;6.95;;;15.80;99.90;;;;;;5173674;27;20500;-58
2023/05/04 09:43:39;;;;;;;10.32;6.50;;;15.80;99.90;;;;;;5174112;27;20069;-58
2023/05/04 09:46:05;;;;;;;10.60;5.95;;;15.80;99.90;;;;;;5171594;27;20054;-59
2023/05/04 09:48:31;;;;;;;12.95;6.75;;;15.90;99.90;;;;;;5173224;27;20357;-57
2023/05/04 09:51:05;;;;;;;11.38;6.32;;;16.00;99.90;;;;;;5172959;27;20068;-59
2023/05/04 09:53:31;;;;;;;13.40;5.88;;;16.10;99.90;;;;;;5174798;27;20045;-57
2023/05/04 09:56:06;;;;;;;11.77;5.88;;;16.20;99.90;;;;;;5172997;27;20034;-52
2023/05/04 09:58:32;;;;;;;11.30;5.60;;;16.20;99.90;;;;;;5173048;27;20042;-59
2023/05/04 10:01:00;;;;;;;8.82;5.55;;;16.30;99.90;;;;;;5162773;27;20034;-58
2023/05/04 10:03:27;;;;;;;11.48;5.80;;;16.30;99.90;;;;;;5172192;27;20038;-58
2023/05/04 10:05:53;;;;;;;10.52;5.53;;;16.40;99.90;;;;;;5129928;27;20139;-59
2023/05/04 10:08:19;;;;;;;10.95;6.15;;;16.40;99.90;;;;;;5129239;27;20043;-59
2023/05/04 10:10:45;;;;;;;11.73;6.20;;;16.60;99.90;;;;;;5129605;27;20043;-59
2023/05/04 10:13:11;;;;;;;11.43;5.65;;;16.60;99.90;;;;;;5128800;27;20373;-60
2023/05/04 10:15:59;;;;;;;11.00;6.13;;;16.70;99.90;;;;;;5129588;27;20854;-57
2023/05/04 10:19:01;;;;;;;11.82;5.45;;;16.70;99.90;;;;;;5131195;27;20431;-59
2023/05/04 10:21:26;;;;;;;9.57;5.20;;;16.70;99.90;;;;;;5132309;27;20047;-58
2023/05/04 10:24:01;;;;;;;9.05;5.47;;;16.70;99.90;;;;;;5124652;27;20433;-59
2023/05/04 10:26:54;;;;;;;13.25;5.20;;;16.70;99.90;;;;;;5117635;27;20047;-59
2023/05/04 10:29:22;;;;;;;9.32;5.05;;;16.70;99.90;;;;;;5109193;27;20095;-60
2023/05/04 10:31:48;;;;;;;10.55;5.60;;;16.70;99.90;;;;;;5117106;27;20113;-60
2023/05/04 10:34:33;;;;;;;9.32;5.00;;;16.70;99.90;;;;;;5113368;27;20571;-59
2023/05/04 10:37:00;;;;;;;8.93;4.95;;;16.90;99.90;;;;;;5120202;27;20579;-59
2023/05/04 10:39:30;;;;;;;8.63;5.00;;;17.00;99.90;;;;;;5113481;27;20039;-58
2023/05/04 10:42:07;;;;;;;10.00;5.43;;;17.10;99.90;;;;;;5115037;27;20114;-58
2023/05/04 10:44:34;;;;;;;9.40;4.55;;;17.30;99.90;;;;;;5116997;27;20047;-57
2023/05/04 10:47:04;;;;;;;9.80;4.78;;;17.50;99.90;;;;;;5115312;27;20524;-59
2023/05/04 10:49:30;;;;;;;10.15;4.78;;;17.60;99.90;;;;;;5113076;27;20161;-58
2023/05/04 10:52:08;;;;;;;8.68;5.25;;;17.70;99.90;;;;;;5121793;27;20081;-59
2023/05/04 10:54:36;;;;;;;10.32;4.82;;;17.80;99.90;;;;;;5117411;27;20027;-59
2023/05/04 10:57:07;;;;;;;14.00;4.97;;;17.90;99.90;;;;;;5114413;27;20047;-59
2023/05/04 10:59:33;;;;;;;10.13;5.20;;;18.00;99.90;;;;;;5121311;27;20031;-59
2023/05/04 11:02:01;;;;;;;6.80;4.68;;;18.00;99.90;;;;;;5121395;27;20043;-58
2023/05/04 11:04:27;;;;;;;9.45;4.60;;;18.10;99.90;;;;;;5112111;27;20397;-58
2023/05/04 11:07:05;;;;;;;7.18;4.60;;;18.20;99.90;;;;;;5159410;27;20432;-59
2023/05/04 11:09:38;;;;;;;6.82;4.45;;;18.40;99.90;;;;;;5157789;27;20121;-58
2023/05/04 11:12:05;;;;;;;8.63;4.50;;;18.60;99.90;;;;;;5129510;27;20058;-58
2023/05/04 11:14:30;;;;;;;9.13;4.88;;;18.70;99.90;;;;;;5158386;27;20046;-58
2023/05/04 11:17:05;;;;;;;10.15;4.45;;;18.80;99.90;;;;;;5158870;27;20035;-58
2023/05/04 11:19:33;;;;;;;9.55;4.90;;;18.90;99.90;;;;;;5153657;27;20480;-57
2023/05/04 11:22:00;;;;;;;8.30;4.20;;;19.10;99.70;;;;;;5131123;27;20040;-61
2023/05/04 11:24:25;;;;;;;9.35;4.47;;;19.10;99.30;;;;;;5154290;27;20049;-58
2023/05/04 11:26:51;;;;;;;7.43;3.88;;;19.20;99.30;;;;;;5171044;27;20489;-56
2023/05/04 11:29:18;;;;;;;9.00;4.10;;;19.40;99.20;;;;;;5169778;27;20045;-58
2023/05/04 11:31:53;;;;;;;7.00;4.38;;;19.40;98.70;;;;;;5170469;27;20041;-57
2023/05/04 11:34:22;;;;;;;8.60;4.32;;;19.60;98.30;;;;;;5169504;27;20039;-59
2023/05/04 11:36:48;;;;;;;7.22;4.38;;;19.60;98.40;;;;;;5164551;27;20045;-60
2023/05/04 11:39:14;;;;;;;8.05;4.30;;;19.60;98.40;;;;;;5165901;27;20384;-59
2023/05/04 11:41:42;;;;;;;8.20;4.10;;;19.60;98.20;;;;;;5136815;27;20070;-60
2023/05/04 11:44:09;;;;;;;8.25;4.25;;;19.70;98.30;;;;;;5159507;27;20046;-57
2023/05/04 11:46:35;;;;;;;6.90;3.63;;;19.70;97.80;;;;;;5170698;27;20038;-58
2023/05/04 11:49:02;;;;;;;7.15;4.10;;;19.80;97.90;;;;;;5165331;27;20045;-58
2023/05/04 11:51:28;;;;;;;8.45;4.72;;;19.90;97.50;;;;;;5166466;27;20083;-58
2023/05/04 11:53:54;;;;;;;7.95;3.55;;;20.00;97.30;;;;;;5135662;27;20485;-57
2023/05/04 11:56:20;;;;;;;12.23;4.90;;;20.00;97.40;;;;;;5156002;27;20095;-57
2023/05/04 11:58:46;;;;;;;10.07;4.50;;;20.10;97.50;;;;;;5176465;27;20049;-60
2023/05/04 12:01:13;;;;;;;10.00;4.55;;;20.20;97.10;;;;;;5177035;27;20038;-61
2023/05/04 12:03:40;;;;;;;10.35;4.88;;;20.30;96.50;;;;;;5175794;27;20724;-60
2023/05/04 12:06:06;;;;;;;12.18;4.40;;;20.40;96.70;;;;;;5175321;27;20053;-59
2023/05/04 12:08:34;;;;;;;7.53;3.90;;;20.40;96.50;;;;;;5174474;27;20491;-61
2023/05/04 12:11:24;;;;;;;7.45;3.88;;;20.50;96.40;;;;;;5144340;27;20043;-61
2023/05/04 12:14:15;;;;;;;10.77;4.35;;;20.50;96.30;;;;;;5167203;27;20034;-58
2023/05/04 12:16:53;;;;;;;10.10;4.30;;;20.50;95.90;;;;;;5174999;27;20027;-58
2023/05/04 12:19:18;;;;;;;8.75;4.35;;;20.60;96.30;;;;;;5174807;27;20102;-58
2023/05/04 12:21:52;;;;;;;8.65;4.00;;;20.80;96.50;;;;;;5175247;27;20030;-60
2023/05/04 12:24:21;;;;;;;8.35;3.88;;;21.00;95.80;;;;;;5176958;27;20045;-59
2023/05/04 12:26:47;;;;;;;9.88;3.85;;;21.10;95.80;;;;;;5176389;27;20058;-59
2023/05/04 12:29:13;;;;;;;8.02;3.83;;;21.40;95.80;;;;;;5170842;27;20069;-59
2023/05/04 12:31:38;;;;;;;9.25;3.65;;;21.60;95.20;;;;;;5152121;27;20370;-60
2023/05/04 12:34:04;;;;;;;8.50;3.95;;;21.80;95.30;;;;;;5173773;27;20079;-59
2023/05/04 12:36:30;;;;;;;6.97;4.10;;;21.90;94.60;;;;;;5168831;27;20061;-58
2023/05/04 12:38:55;;;;;;;6.88;3.90;;;22.00;94.70;;;;;;5176491;27;20545;-61
2023/05/04 12:41:21;;;;;;;6.88;3.80;;;22.10;94.60;;;;;;5176671;27;20049;-60
2023/05/04 12:43:48;;;;;;;8.50;3.75;;;22.10;94.40;;;;;;5172068;27;20516;-60
2023/05/04 12:46:16;;;;;;;7.07;3.80;;;22.20;94.60;;;;;;5175900;27;20053;-60